Decoded Metar for KEIK ( in ) (IATA:) | Meteo·Mobile Aviation Weather
aviador You're here:

KEIK Decoded Metar

in
Report Time2019-01-20 10:54:00
UTC Time2019-01-20 11:08:20
Flight Rules vfr VFR
Wind240° at 04 kt
W.Decomp.*RWY 15: 4.0 kt RCW
W.Rank240° ranks 35
Current wind is below 240° avg. (6.1)
Visibility9999 m
Phenomena:N/A
Clouds:N/A
Expected CloudBase > 2,800 ft AGL from Temp-Dew spread
CeilingNone
Temp03°C
Dew Point-4°C (60% RH)
AAT-0.9°C
QNH1020 hPa
Raw Report
KEIK 201054Z AUTO 24004KT 10SM CLR 03/M04 A3011 RMK AO2
T00271044=

Extra information for KEIK:More info

Social comments